.
WxDataArchive / Data Records for 2007-03-25
2007-03-24 March 2007 2007-03-26

Data Records for Sunday, 25 March 2007

Time	Temp	Chill	HIndex	Humid	Dewpt	 Wind 	HiWind	WindDir	Rain 	Barom 
-----	----	-----	------	-----	-----	------	------	-------	-----	----- 
00:00	52.0	52.0	52.0	96	50.9	0	0	---	0.00	30.258 
00:05	52.0	52.0	52.0	96	50.9	0	0	---	0.00	30.254 
00:10	52.0	52.0	52.0	96	50.9	0	0	---	0.00	30.251 
00:15	52.2	52.2	52.2	96	51.1	0	0	---	0.00	30.251 
00:20	52.2	52.2	52.2	97	51.4	0	0	---	0.00	30.249 
00:25	52.2	52.2	52.2	97	51.4	0	0	---	0.00	30.249 
00:30	52.2	52.2	52.2	97	51.4	0	0	---	0.00	30.245 
00:35	52.3	52.3	52.3	97	51.5	0	0	---	0.00	30.246 
00:40	52.5	52.5	52.5	97	51.7	0	0	---	0.00	30.249 
00:45	52.5	52.5	52.5	97	51.7	0	0	---	0.00	30.248 
00:50	52.3	52.3	52.3	97	51.5	0	0	---	0.00	30.249 
00:55	52.3	52.3	52.3	97	51.5	0	0	---	0.00	30.250 
01:00	52.3	52.3	52.3	97	51.5	0	0	---	0.00	30.249 
01:05	52.5	52.5	52.5	97	51.7	0	1	270	0.00	30.242 
01:10	52.6	52.6	52.6	97	51.8	0	1	270	0.00	30.236 
01:15	52.9	52.9	52.9	97	52.1	0	2	270	0.00	30.234 
01:20	53.5	53.5	53.5	98	52.9	1	2	270	0.00	30.232 
01:25	53.8	53.8	53.8	98	53.2	0	1	270	0.00	30.230 
01:30	54.1	54.1	54.1	98	53.5	1	3	292	0.00	30.229 
01:35	53.9	53.9	53.9	97	53.1	1	3	90	0.00	30.230 
01:40	53.9	53.9	53.9	97	53.1	1	3	90	0.00	30.232 
01:45	53.6	53.6	53.6	97	52.8	0	2	90	0.00	30.230 
01:50	53.6	53.6	53.6	97	52.8	1	2	90	0.00	30.230 
01:55	53.8	53.8	53.8	97	53.0	1	3	90	0.00	30.230 
02:00	53.8	53.8	53.8	97	53.0	1	4	90	0.00	30.230 
02:05	53.8	53.8	53.8	97	53.0	1	3	90	0.00	30.229 
02:10	53.6	53.6	53.6	96	52.5	2	5	90	0.00	30.229 
02:15	53.6	53.6	53.6	96	52.5	2	5	112	0.00	30.229 
02:20	53.8	53.8	53.8	96	52.7	2	4	90	0.00	30.229 
02:25	53.8	53.8	53.8	96	52.7	1	2	90	0.00	30.228 
02:30	53.9	53.9	53.9	95	52.5	2	3	90	0.00	30.225 
02:35	54.1	54.1	54.1	94	52.4	2	3	112	0.00	30.221 
02:40	54.1	54.1	54.1	94	52.4	1	3	90	0.00	30.221 
02:45	54.1	54.1	54.1	93	52.1	0	2	90	0.00	30.220 
02:50	54.1	54.1	54.1	93	52.1	1	2	90	0.00	30.216 
02:55	54.1	54.1	54.1	93	52.1	1	3	90	0.00	30.217 
03:00	54.2	54.2	54.2	93	52.2	0	2	90	0.00	30.221 
03:05	54.2	54.2	54.2	92	51.9	1	3	90	0.00	30.221 
03:10	54.4	54.4	54.4	92	52.1	0	1	90	0.00	30.225 
03:15	54.2	54.2	54.2	92	51.9	0	1	90	0.00	30.226 
03:20	54.2	54.2	54.2	92	51.9	0	1	90	0.00	30.220 
03:25	54.1	54.1	54.1	92	51.8	0	0	---	0.00	30.219 
03:30	54.1	54.1	54.1	92	51.8	0	0	---	0.00	30.218 
03:35	54.1	54.1	54.1	92	51.8	0	1	90	0.00	30.216 
03:40	53.9	53.9	53.9	92	51.6	0	1	90	0.00	30.215 
03:45	53.9	53.9	53.9	92	51.6	0	1	90	0.00	30.214 
03:50	53.9	53.9	53.9	92	51.6	1	2	90	0.00	30.215 
03:55	53.9	53.9	53.9	92	51.6	1	2	90	0.00	30.215 
04:00	53.9	53.9	53.9	92	51.6	1	3	90	0.00	30.215 
04:05	53.8	53.8	53.8	92	51.5	1	3	90	0.00	30.214 
04:10	53.6	53.6	53.6	92	51.3	1	2	90	0.00	30.214 
04:15	53.6	53.6	53.6	92	51.3	1	2	90	0.00	30.215 
04:20	53.5	53.5	53.5	92	51.2	1	2	90	0.00	30.215 
04:25	53.5	53.5	53.5	92	51.2	1	3	90	0.00	30.215 
04:30	53.5	53.5	53.5	92	51.2	1	2	90	0.00	30.215 
04:35	53.3	53.3	53.3	92	51.0	0	2	90	0.00	30.217 
04:40	53.3	53.3	53.3	92	51.0	0	2	90	0.00	30.219 
04:45	53.3	53.3	53.3	93	51.3	0	1	90	0.00	30.222 
04:50	53.3	53.3	53.3	93	51.3	0	1	90	0.00	30.225 
04:55	53.5	53.5	53.5	93	51.5	1	2	90	0.00	30.226 
05:00	53.5	53.5	53.5	93	51.5	0	2	90	0.00	30.225 
05:05	53.6	53.6	53.6	94	51.9	0	1	90	0.00	30.232 
05:10	53.6	53.6	53.6	94	51.9	0	1	90	0.00	30.232 
05:15	53.6	53.6	53.6	94	51.9	0	2	90	0.00	30.231 
05:20	53.9	53.9	53.9	94	52.2	1	2	90	0.00	30.230 
05:25	53.9	53.9	53.9	94	52.2	0	2	90	0.00	30.228 
05:30	54.1	54.1	54.1	95	52.7	1	2	90	0.00	30.227 
05:35	54.2	54.2	54.2	95	52.8	0	2	90	0.00	30.228 
05:40	54.2	54.2	54.2	95	52.8	0	2	90	0.00	30.230 
05:45	54.2	54.2	54.2	95	52.8	0	1	90	0.00	30.231 
05:50	54.2	54.2	54.2	94	52.5	0	3	90	0.00	30.231 
05:55	54.1	54.1	54.1	94	52.4	0	1	90	0.00	30.231 
06:00	54.2	54.2	54.2	95	52.8	1	2	90	0.00	30.231 
06:05	54.4	54.4	54.4	94	52.7	1	3	90	0.00	30.233 
06:10	54.5	54.5	54.5	94	52.8	1	4	112	0.00	30.233 
06:15	54.5	54.5	54.5	94	52.8	1	3	112	0.00	30.234 
06:20	54.4	54.4	54.4	93	52.4	1	2	90	0.00	30.236 
06:25	54.1	54.1	54.1	93	52.1	1	3	90	0.00	30.238 
06:30	53.9	53.9	53.9	93	51.9	1	2	90	0.00	30.239 
06:35	53.8	53.8	53.8	93	51.8	1	3	90	0.00	30.239 
06:40	53.5	53.5	53.5	93	51.5	1	2	90	0.00	30.238 
06:45	53.5	53.5	53.5	93	51.5	1	2	90	0.00	30.239 
06:50	53.5	53.5	53.5	93	51.5	1	3	90	0.00	30.239 
06:55	53.3	53.3	53.3	93	51.3	1	4	90	0.00	30.240 
07:00	53.3	53.3	53.3	93	51.3	1	3	90	0.00	30.238 
07:05	53.3	53.3	53.3	93	51.3	2	4	90	0.00	30.242 
07:10	53.3	53.3	53.3	93	51.3	2	4	90	0.00	30.246 
07:15	53.3	53.3	53.3	93	51.3	1	4	90	0.00	30.243 
07:20	53.3	53.3	53.3	93	51.3	2	4	90	0.00	30.249 
07:25	53.5	53.5	53.5	93	51.5	2	4	90	0.00	30.248 
07:30	53.5	53.5	53.5	93	51.5	2	5	90	0.00	30.248 
07:35	53.5	53.5	53.5	93	51.5	3	5	90	0.00	30.248 
07:40	53.5	53.5	53.5	93	51.5	3	5	90	0.00	30.246 
07:45	53.5	53.5	53.5	93	51.5	2	4	90	0.00	30.245 
07:50	53.5	53.5	53.5	93	51.5	3	5	90	0.00	30.243 
07:55	53.6	53.6	53.6	93	51.6	2	5	90	0.00	30.245 
08:00	53.6	53.6	53.6	93	51.6	2	4	112	0.00	30.244 
08:05	53.9	53.9	53.9	93	51.9	2	5	112	0.00	30.244 
08:10	54.2	54.2	54.2	93	52.2	2	5	90	0.00	30.245 
08:15	54.4	54.4	54.4	92	52.1	2	4	90	0.00	30.245 
08:20	54.5	54.5	54.5	92	52.2	2	4	112	0.00	30.250 
08:25	54.7	54.7	54.7	92	52.4	2	4	90	0.00	30.249 
08:30	54.8	54.8	54.8	92	52.5	3	5	112	0.00	30.250 
08:35	55.0	55.0	55.0	92	52.7	2	4	112	0.00	30.246 
08:40	55.1	55.1	55.1	92	52.8	2	5	90	0.00	30.248 
08:45	55.1	55.1	55.1	92	52.8	2	5	112	0.00	30.248 
08:50	55.6	55.6	55.6	92	53.3	2	5	90	0.00	30.242 
08:55	55.9	55.9	55.9	92	53.6	3	5	112	0.00	30.241 
09:00	56.0	56.0	56.0	92	53.7	3	5	112	0.00	30.239 
09:05	56.2	56.2	56.2	92	53.9	3	5	112	0.00	30.242 
09:10	56.3	56.3	56.3	92	54.0	2	4	68	0.00	30.242 
09:15	56.6	56.6	56.6	92	54.3	2	4	112	0.00	30.241 
09:20	56.7	56.7	56.7	92	54.4	2	4	112	0.00	30.245 
09:25	56.9	56.9	56.9	92	54.6	3	5	112	0.00	30.245 
09:30	57.0	57.0	57.0	92	54.7	2	3	112	0.00	30.245 
09:35	57.3	57.3	57.3	92	55.0	1	3	90	0.00	30.245 
09:40	57.5	57.5	57.5	92	55.2	2	4	112	0.00	30.242 
09:45	57.6	57.6	57.6	92	55.3	2	5	112	0.00	30.240 
09:50	57.8	57.8	57.8	92	55.5	2	4	90	0.00	30.237 
09:55	58.0	58.0	58.0	92	55.7	3	6	112	0.00	30.236 
10:00	58.3	58.3	58.3	92	56.0	2	5	90	0.00	30.236 
10:05	58.7	58.7	58.7	92	56.4	2	4	90	0.00	30.236 
10:10	59.0	59.0	59.0	92	56.7	2	5	90	0.00	30.234 
10:15	59.6	59.6	59.6	91	57.0	2	5	112	0.00	30.234 
10:20	60.4	60.4	60.4	91	57.8	2	5	112	0.00	30.231 
10:25	61.0	61.0	61.0	89	57.7	2	4	112	0.00	30.228 
10:30	61.6	61.6	61.6	88	58.0	3	7	112	0.00	30.226 
10:35	62.4	62.4	62.4	88	58.8	2	5	90	0.00	30.223 
10:40	63.2	63.2	63.2	85	58.6	2	5	90	0.00	30.221 
10:45	64.2	64.2	64.2	86	59.9	2	6	112	0.00	30.217 
10:50	65.3	65.3	65.3	84	60.3	2	6	90	0.00	30.215 
10:55	66.4	66.4	66.4	80	60.0	3	6	90	0.00	30.210 
11:00	67.1	67.1	67.1	80	60.7	3	6	90	0.00	30.206 
11:05	67.8	67.8	67.8	77	60.3	3	9	112	0.00	30.205 
11:10	68.1	68.1	68.1	77	60.6	2	8	112	0.00	30.200 
11:15	68.4	68.4	68.4	75	60.2	3	6	90	0.00	30.198 
11:20	69.1	69.1	69.1	77	61.6	2	5	68	0.00	30.196 
11:25	69.6	69.6	69.6	74	60.9	2	6	112	0.00	30.193 
11:30	69.8	69.8	69.8	74	61.1	3	10	112	0.00	30.188 
11:35	70.3	70.3	70.3	73	61.2	2	5	90	0.00	30.185 
11:40	70.9	70.9	70.9	73	61.8	2	5	135	0.00	30.183 
11:45	71.3	71.3	71.3	71	61.4	3	6	112	0.00	30.181 
11:50	71.6	71.6	71.6	71	61.7	4	9	112	0.00	30.178 
11:55	71.6	71.6	71.6	71	61.7	3	9	112	0.00	30.179 
12:00	72.0	72.0	72.0	71	62.1	3	10	90	0.00	30.179 
12:05	72.3	72.3	72.3	70	62.0	3	7	112	0.00	30.177 
12:10	72.8	72.8	72.8	69	62.0	2	6	135	0.00	30.176 
12:15	73.2	73.2	73.2	69	62.4	2	7	135	0.00	30.174 
12:20	73.3	73.3	73.3	67	61.7	3	6	90	0.00	30.168 
12:25	73.7	73.7	73.7	69	62.9	3	6	112	0.00	30.163 
12:30	74.0	74.0	74.0	66	61.9	3	9	90	0.00	30.162 
12:35	74.2	74.2	74.2	67	62.5	2	6	112	0.00	30.161 
12:40	74.6	74.6	74.6	64	61.6	3	7	248	0.00	30.161 
12:45	74.9	74.9	74.9	65	62.3	3	6	90	0.00	30.157 
12:50	75.1	75.1	77.3	63	61.6	3	7	248	0.00	30.150 
12:55	74.9	74.9	74.9	62	61.0	3	6	68	0.00	30.147 
13:00	74.7	74.7	74.7	64	61.7	2	4	248	0.00	30.145 
13:05	75.1	75.1	77.3	62	61.2	2	11	248	0.00	30.140 
13:10	75.8	75.8	77.9	59	60.4	4	12	270	0.00	30.137 
13:15	76.1	76.1	78.1	57	59.7	3	7	248	0.00	30.137 
13:20	76.8	76.8	78.6	57	60.4	3	6	248	0.00	30.134 
13:25	76.7	76.7	78.5	55	59.3	2	5	248	0.00	30.130 
13:30	76.1	76.1	78.1	56	59.2	4	10	248	0.00	30.134 
13:35	76.3	76.3	78.3	55	58.9	3	10	248	0.00	30.129 
13:40	76.5	76.5	78.4	54	58.6	3	13	248	0.00	30.129 
13:45	76.8	76.8	78.5	50	56.7	5	11	270	0.00	30.127 
13:50	76.5	76.5	78.4	54	58.6	4	9	248	0.00	30.127 
13:55	76.1	76.1	78.1	54	58.2	4	9	248	0.00	30.126 
14:00	76.1	76.1	78.1	54	58.2	2	6	248	0.00	30.126 
14:05	76.1	76.1	78.1	54	58.2	2	5	248	0.00	30.123 
14:10	76.5	76.5	78.4	55	59.1	1	5	248	0.00	30.121 
14:15	76.5	76.5	78.4	52	57.5	4	11	248	0.00	30.119 
14:20	76.3	76.3	78.2	52	57.4	3	7	248	0.00	30.117 
14:25	76.1	76.1	78.1	54	58.2	2	5	248	0.00	30.119 
14:30	76.1	76.1	78.1	49	55.5	4	9	248	0.00	30.118 
14:35	76.3	76.3	78.2	50	56.3	4	12	248	0.00	30.116 
14:40	76.7	76.7	78.4	51	57.2	4	12	248	0.00	30.113 
14:45	77.4	77.4	78.9	51	57.8	3	10	270	0.00	30.112 
14:50	78.1	78.1	79.3	50	57.9	3	9	248	0.00	30.111 
14:55	77.7	77.7	79.0	49	57.0	4	11	248	0.00	30.111 
15:00	77.4	77.4	78.8	50	57.3	3	8	248	0.00	30.112 
15:05	77.0	77.0	78.5	48	55.8	4	10	248	0.00	30.114 
15:10	76.7	76.7	78.4	50	56.6	2	6	248	0.00	30.111 
15:15	77.2	77.2	78.7	48	56.0	4	11	248	0.00	30.109 
15:20	77.4	77.4	78.8	48	56.1	2	7	248	0.00	30.108 
15:25	78.1	78.1	79.2	47	56.2	3	9	248	0.00	30.099 
15:30	78.5	78.5	79.2	43	54.1	6	13	248	0.00	30.105 
15:35	78.1	78.1	78.9	43	53.8	6	16	248	0.00	30.101 
15:40	77.6	77.6	78.8	45	54.6	5	13	248	0.00	30.097 
15:45	77.4	77.4	78.7	46	55.0	4	12	248	0.00	30.097 
15:50	77.4	77.4	78.7	47	55.6	4	12	248	0.00	30.097 
15:55	77.2	77.2	78.6	46	54.8	5	11	248	0.00	30.106 
16:00	77.4	77.4	78.8	48	56.1	4	10	248	0.00	30.110 
16:05	77.7	77.7	78.9	46	55.2	6	13	248	0.00	30.099 
16:10	78.1	78.1	79.2	47	56.2	4	10	248	0.00	30.094 
16:15	78.3	78.3	79.2	46	55.8	4	8	248	0.00	30.093 
16:20	77.7	77.7	78.9	47	55.8	5	16	248	0.00	30.098 
16:25	77.4	77.4	78.7	47	55.6	4	9	248	0.00	30.100 
16:30	76.8	76.8	78.4	48	55.6	4	11	248	0.00	30.097 
16:35	76.7	76.7	78.4	49	56.1	4	11	248	0.00	30.099 
16:40	76.7	76.7	78.4	50	56.6	4	11	248	0.00	30.100 
16:45	76.5	76.5	78.3	50	56.5	4	9	248	0.00	30.100 
16:50	76.3	76.3	78.2	51	56.8	3	7	248	0.00	30.098 
16:55	76.0	76.0	78.1	51	56.5	1	3	248	0.00	30.096 
17:00	75.8	75.8	78.0	51	56.4	2	6	248	0.00	30.094 
17:05	75.6	75.6	77.9	51	56.2	2	6	248	0.00	30.092 
17:10	75.4	75.4	77.8	52	56.5	1	6	248	0.00	30.092 
17:15	75.3	75.3	77.7	53	57.0	1	5	90	0.00	30.089 
17:20	75.3	75.3	77.7	54	57.5	1	5	225	0.00	30.086 
17:25	75.3	75.3	77.7	53	57.0	1	4	248	0.00	30.083 
17:30	75.3	75.3	77.7	53	57.0	1	4	248	0.00	30.086 
17:35	75.3	75.3	77.7	55	58.0	0	2	248	0.00	30.085 
17:40	74.9	74.9	74.9	56	58.1	0	3	248	0.00	30.082 
17:45	74.7	74.7	74.7	56	57.9	1	3	292	0.00	30.080 
17:50	74.4	74.4	74.4	55	57.2	1	4	270	0.00	30.080 
17:55	74.2	74.2	74.2	55	57.0	1	3	270	0.00	30.078 
18:00	73.9	73.9	73.9	56	57.2	0	1	270	0.00	30.075 
18:05	73.5	73.5	73.5	57	57.3	0	2	270	0.00	30.075 
18:10	73.2	73.2	73.2	57	57.0	0	4	202	0.00	30.074 
18:15	72.8	72.8	72.8	58	57.1	0	1	202	0.00	30.074 
18:20	72.7	72.7	72.7	58	57.1	0	1	202	0.00	30.075 
18:25	72.3	72.3	72.3	58	56.7	0	1	202	0.00	30.075 
18:30	72.3	72.3	72.3	58	56.7	0	1	202	0.00	30.074 
18:35	72.1	72.1	72.1	59	57.0	0	2	180	0.00	30.072 
18:40	72.1	72.1	72.1	58	56.5	0	2	180	0.00	30.070 
18:45	72.1	72.1	72.1	58	56.5	0	1	158	0.00	30.071 
18:50	72.0	72.0	72.0	58	56.4	0	1	158	0.00	30.071 
18:55	71.8	71.8	71.8	59	56.7	0	1	158	0.00	30.069 
19:00	71.6	71.6	71.6	60	57.0	0	0	---	0.00	30.068 
19:05	71.3	71.3	71.3	60	56.7	0	1	158	0.00	30.068 
19:10	70.9	70.9	70.9	61	56.8	0	1	158	0.00	30.068 
19:15	70.6	70.6	70.6	62	56.9	0	0	---	0.00	30.068 
19:20	70.1	70.1	70.1	62	56.5	0	0	---	0.00	30.067 
19:25	69.6	69.6	69.6	64	56.9	0	0	---	0.00	30.067 
19:30	69.3	69.3	69.3	64	56.6	0	1	158	0.00	30.069 
19:35	68.9	68.9	68.9	65	56.6	0	0	---	0.00	30.069 
19:40	68.4	68.4	68.4	65	56.2	0	0	---	0.00	30.067 
19:45	68.3	68.3	68.3	66	56.5	0	1	158	0.00	30.066 
19:50	68.1	68.1	68.1	66	56.3	0	1	158	0.00	30.068 
19:55	67.9	67.9	67.9	67	56.5	0	0	---	0.00	30.067 
20:00	67.6	67.6	67.6	68	56.7	0	0	---	0.00	30.067 
20:05	67.3	67.3	67.3	68	56.4	0	0	---	0.00	30.065 
20:10	67.1	67.1	67.1	68	56.2	0	1	158	0.00	30.060 
20:15	66.9	66.9	66.9	68	56.0	0	0	---	0.00	30.062 
20:20	66.9	66.9	66.9	69	56.4	0	1	158	0.00	30.066 
20:25	66.8	66.8	66.8	69	56.3	0	0	---	0.00	30.067 
20:30	66.6	66.6	66.6	68	55.7	0	1	158	0.00	30.064 
20:35	66.8	66.8	66.8	68	55.9	0	1	158	0.00	30.064 
20:40	66.8	66.8	66.8	68	55.9	0	1	158	0.00	30.064 
20:45	66.8	66.8	66.8	68	55.9	0	1	158	0.00	30.059 
20:50	66.8	66.8	66.8	68	55.9	0	1	158	0.00	30.059 
20:55	66.8	66.8	66.8	68	55.9	0	0	---	0.00	30.060 
21:00	66.6	66.6	66.6	68	55.7	0	0	---	0.00	30.058 
21:05	66.4	66.4	66.4	68	55.5	0	1	158	0.00	30.057 
21:10	66.3	66.3	66.3	69	55.8	0	0	---	0.00	30.058 
21:15	66.1	66.1	66.1	69	55.6	0	0	---	0.00	30.058 
21:20	65.8	65.8	65.8	69	55.3	0	0	---	0.00	30.057 
21:25	65.3	65.3	65.3	70	55.3	0	0	---	0.00	30.054 
21:30	65.2	65.2	65.2	71	55.6	0	0	---	0.00	30.054 
21:35	65.0	65.0	65.0	71	55.4	0	1	158	0.00	30.051 
21:40	65.0	65.0	65.0	71	55.4	0	1	158	0.00	30.047 
21:45	64.8	64.8	64.8	71	55.2	0	1	158	0.00	30.051 
21:50	64.7	64.7	64.7	71	55.1	0	0	---	0.00	30.050 
21:55	64.5	64.5	64.5	72	55.3	0	0	---	0.00	30.046 
22:00	64.3	64.3	64.3	71	54.7	0	0	---	0.00	30.042 
22:05	64.2	64.2	64.2	71	54.6	0	1	158	0.00	30.034 
22:10	64.3	64.3	64.3	71	54.7	0	0	---	0.00	30.034 
22:15	64.2	64.2	64.2	71	54.6	0	1	158	0.00	30.033 
22:20	64.2	64.2	64.2	71	54.6	0	0	---	0.00	30.034 
22:25	64.2	64.2	64.2	71	54.6	0	1	158	0.00	30.035 
22:30	64.0	64.0	64.0	71	54.4	0	0	---	0.00	30.035 
22:35	63.9	63.9	63.9	71	54.3	0	0	---	0.00	30.040 
22:40	63.7	63.7	63.7	72	54.5	0	2	158	0.00	30.043 
22:45	63.9	63.9	63.9	71	54.3	0	2	225	0.00	30.040 
22:50	63.9	63.9	63.9	71	54.3	0	1	225	0.00	30.038 
22:55	64.0	64.0	64.0	70	54.0	0	0	---	0.00	30.040 
23:00	64.0	64.0	64.0	71	54.4	0	0	---	0.00	30.044 
23:05	64.0	64.0	64.0	70	54.0	0	0	---	0.00	30.040 
23:10	63.9	63.9	63.9	70	53.9	0	0	---	0.00	30.038 
23:15	63.9	63.9	63.9	71	54.3	0	1	225	0.00	30.034 
23:20	64.0	64.0	64.0	69	53.6	0	1	225	0.00	30.034 
23:25	64.2	64.2	64.2	69	53.8	0	0	---	0.00	30.033 
23:30	64.3	64.3	64.3	69	53.9	0	1	225	0.00	30.033 
23:35	64.3	64.3	64.3	69	53.9	0	0	---	0.00	30.031 
23:40	64.2	64.2	64.2	69	53.8	0	0	---	0.00	30.031 
23:45	64.0	64.0	64.0	69	53.6	0	0	---	0.00	30.029 
23:50	63.9	63.9	63.9	70	53.9	0	0	---	0.00	30.029 
23:55	63.5	63.5	63.5	71	53.9	0	0	---	0.00	30.028 

CoCoRaHS
IN-AL-39
A2 Web Hosting
Creative Commons License
GoDaddy
Look for:

loaded 2017-12-12 07:05:17 • last modified 2010-11-18 10:43:29
Privacy PolicyDisclaimer
• wx.awcolley.com is powered by PmWiki v.2002016 •
• all content (unless otherwise noted) © 2017 A W Colley